Caribbean Galaxy — 3EZV4 — position and weather

sailwx.info

Track history (hours):
 
Tides and Currents Weather Stations Pressure Air Temp Water Temp Dewpoint Dewpoint Depression Visibility Wind Speed Wind Dir Waves Ship Positions

Caribbean Galaxy

Last reported at 2014-Jul-24 19:26 UTC. Time now 2014-Jul-31 03:21 UTC.
Position N 01°16' E 104°10'.

Length 246 m; draft 12.4 m.

Type: Ship (hazmat cat A). MMSI: 357449000.

Date/timePositionNaut miles runAvg speedWind from/ knotsBaromVisibWave heightAir tempDewpointWater temp
2014-Jul-24 19:26N 01°16' E 104°10'1011.9
2014-Jul-24 18:33N 01°15' E 104°00'6 5.4
2014-Jul-24 17:32N 01°15' E 103°55'0 0.0
2014-Jul-24 16:31N 01°15' E 103°55'0 0.0
2014-Jul-24 15:29N 01°15' E 103°55'0 0.1
2014-Jul-24 14:23N 01°15' E 103°55'0 0.2
2014-Jul-24 13:28N 01°15' E 103°54'0 0.1
2014-Jul-24 12:32N 01°15' E 103°54'0 0.0
2014-Jul-24 11:32N 01°15' E 103°54'0 0.0
2014-Jul-24 09:11N 01°15' E 103°55'0 0.1
2014-Jul-24 06:16N 01°15' E 103°54'0 0.0
2014-Jul-24 05:31N 01°15' E 103°54'0 0.0
2014-Jul-24 03:29N 01°15' E 103°54'0 0.0
2014-Jul-24 02:31N 01°15' E 103°54'0 0.1
2014-Jul-24 01:32N 01°15' E 103°55'0 0.1
2014-Jul-24 00:32N 01°15' E 103°55'0 0.2
2014-Jul-23 23:32N 01°15' E 103°55'1 1.4
2014-Jul-23 22:33N 01°15' E 103°56'2 1.9
2014-Jul-23 21:33N 01°15' E 103°58'5 4.5
2014-Jul-23 20:33N 01°12' E 103°54'6 5.7
2014-Jul-23 19:26N 01°10' E 103°48'  
Track history (hours):
 
Tides and Currents Weather Stations Pressure Air Temp Water Temp Dewpoint Dewpoint Depression Visibility Wind Speed Wind Dir Waves Ship Positions

Caribbean Galaxy

Last reported at 2014-Jul-24 19:26 UTC. Time now 2014-Jul-31 03:21 UTC.
Position N 01°16' E 104°10'.

Length 246 m; draft 12.4 m.

Type: Ship (hazmat cat A). MMSI: 357449000.

Date/timePositionNaut miles runAvg speedWind from/ knotsBaromVisibWave heightAir tempDewpointWater temp
2014-Jul-24 19:26N 01°16' E 104°10'1011.9
2014-Jul-24 18:33N 01°15' E 104°00'6 5.4
2014-Jul-24 17:32N 01°15' E 103°55'0 0.0
2014-Jul-24 16:31N 01°15' E 103°55'0 0.0
2014-Jul-24 15:29N 01°15' E 103°55'0 0.1
2014-Jul-24 14:23N 01°15' E 103°55'0 0.2
2014-Jul-24 13:28N 01°15' E 103°54'0 0.1
2014-Jul-24 12:32N 01°15' E 103°54'0 0.0
2014-Jul-24 11:32N 01°15' E 103°54'0 0.0
2014-Jul-24 09:11N 01°15' E 103°55'0 0.1
2014-Jul-24 06:16N 01°15' E 103°54'0 0.0
2014-Jul-24 05:31N 01°15' E 103°54'0 0.0
2014-Jul-24 03:29N 01°15' E 103°54'0 0.0
2014-Jul-24 02:31N 01°15' E 103°54'0 0.1
2014-Jul-24 01:32N 01°15' E 103°55'0 0.1
2014-Jul-24 00:32N 01°15' E 103°55'0 0.2
2014-Jul-23 23:32N 01°15' E 103°55'1 1.4
2014-Jul-23 22:33N 01°15' E 103°56'2 1.9
2014-Jul-23 21:33N 01°15' E 103°58'5 4.5
2014-Jul-23 20:33N 01°12' E 103°54'6 5.7
2014-Jul-23 19:26N 01°10' E 103°48'  

Dump ship's entire track history